Pagrindinis puslapis
METAR-TAF:

METAR-TAF

Oro uostai :

San Žozė do Rio Pretas, San Paulas, Brazilija

platuma: 20-48-58S, ilguma: 049-24-17W, Aukštis: 543 m

Dabartinis oras

Ataskaita buvo paskelbta 1 valandą ir 20 minutes, ne 02:00 UTC
Ramus vėjas
Temperatūra 26°C
Drėgmė 70%
Slėgis 1014 hPa
Matomumas 10 km arba daugiau
nėra debesų žemiau 1500 m ir nėra kamuolinių lietaus debesų

METAR: SBSR 070200Z 00000KT CAVOK 26/20 Q1014

Laikas: 00:20 (03:20 UTC)


TAF: trūkstamas

Orai ataskaitas ir orų prognozės (METAR, TAF).

turimą stotys yra geltonos ir raudonos taškus žemėlapyje.

Perkelti pele per norėdami pamatyti stoties vardą.

Tada spustelėkite, norėdami matyti oro stebėjimo ir prognozės.

Norėdami pakeisti žemėlapį: spustelėkite ant žalios mygtukų su juodo kryžiaus žemyn,; žalią mygtuką su brūkšneliu, jei norite nutolinti; arba žalių rodyklių gretimoms žemėlapius.


METAR-TAF: